KGDB

Details ICAO KGDB
Name GRANITE FALLS MUNI LENZEN ROE MEM FLD
Region United States
Timezone America/Chicago (UTC-6.0)
Plans Departing 1
Arriving 0
Stats Elevation 1,047 ft / 319 m (AMSL)
Location 44.753282° -95.556018°
Runways 1
Magnetic Variation 2.079° E
Sunrise 2017-12-15 13:54:19 UTC / 2017-12-15 07:54:19 Local
Sunset 2017-12-15 22:43:28 UTC / 2017-12-15 16:43:28 Local
Advertisement - Login to hide

Runways

ID Width Length Bearing (true) Bearing (mag) Surface Threshold Offset Overrun Length
15 75 ft / 23 m 3,708 ft / 1,130 m 157.14° 155.06° Asphalt 0 ft / 0 m 0 ft / 0 m
33 75 ft / 23 m 3,708 ft / 1,130 m 337.15° 335.07° Asphalt 0 ft / 0 m 0 ft / 0 m

Map

Weather


0- 5 10 15 20 25 30 35+ Temperature / ° C

Clouds and Precipitation
Forecast for 2017-12-16 00:00 UTC. Updated an hour ago

Ground ~20,000 ft ~40,000 ft Winds

METAR

KGDB 151955Z AUTO 20007KT 10SM SCT023 BKN029 BKN110 04/00 A2976 RMK AO2 T00411005

TAF

Not found

Frequencies

Recorded 120.10 MHz AWOS 3
Unicom 122.80 MHz CTAF/UNICOM
Warning: Do not use this data for real-world aviation or navigation. No guarantee of current accuracy is given.